Terminal Aerodrome Forecast
Issued by NWS Albany, NY

Home | Current Version | Previous Version | Text Only | Print | Product List | Glossary On
Versions: 1 2 3 4 5 6 7 8 9 10 11 12 13 14 15 16 17 18 19 20 21 22 23 24 25 26 27 28 29 30 31 32 33 34 35 36
000
FTUS41 KALY 251100 RRA
TAFALB
TAF
KALB 251141Z 2512/2612 25014G23KT P6SM OVC035
     FM251500 26015G30KT P6SM BKN035
      TEMPO 2516/2520 29020G40KT
     FM260400 28012G20KT P6SM SCT025
     FM261000 27010KT P6SM SCT150=

USA.gov is the U.S. government's official web portal to all federal, state and local government web resources and services.